createdAt,value
2018-12-24T00:00:41.543Z,82.40
2018-12-24T00:03:14.758Z,82.50
2018-12-24T00:05:48.187Z,85.30
2018-12-24T00:08:21.088Z,84.10
2018-12-24T00:10:54.058Z,83.00
2018-12-24T00:13:27.119Z,84.50
2018-12-24T00:16:00.140Z,86.00
2018-12-24T00:18:33.555Z,86.20
2018-12-24T00:21:06.583Z,85.50
2018-12-24T00:23:39.973Z,85.00
2018-12-24T00:26:13.156Z,83.80
2018-12-24T00:28:46.456Z,81.70
2018-12-24T00:31:19.455Z,81.70
2018-12-24T00:33:52.470Z,81.60
2018-12-24T00:36:25.554Z,81.70
2018-12-24T00:38:59.106Z,84.80
2018-12-24T00:41:32.367Z,86.00
2018-12-24T00:44:05.538Z,85.40
2018-12-24T00:46:38.676Z,85.50
2018-12-24T00:49:11.953Z,85.90
2018-12-24T00:51:45.159Z,84.10
2018-12-24T00:54:18.995Z,83.80
2018-12-24T00:56:51.482Z,83.20
2018-12-24T00:59:24.169Z,85.60
2018-12-24T01:01:56.628Z,84.90
2018-12-24T01:04:29.857Z,83.90
2018-12-24T01:07:02.900Z,84.70
2018-12-24T01:09:35.852Z,86.80
2018-12-24T01:12:08.614Z,87.10
2018-12-24T01:14:41.943Z,87.00
2018-12-24T01:17:14.800Z,86.60
2018-12-24T01:19:48.657Z,86.60
2018-12-24T01:22:21.505Z,87.60
2018-12-24T01:24:54.795Z,87.70
2018-12-24T01:27:27.630Z,87.70
2018-12-24T01:30:00.729Z,87.00
2018-12-24T01:32:33.517Z,86.60
2018-12-24T01:35:06.468Z,86.20
2018-12-24T01:37:40.095Z,85.90
2018-12-24T01:40:13.740Z,85.80
2018-12-24T01:42:46.764Z,85.50
2018-12-24T01:45:19.728Z,85.60
2018-12-24T01:47:54.182Z,86.20
2018-12-24T01:50:27.187Z,86.10
2018-12-24T01:52:59.955Z,86.10
2018-12-24T01:55:33.449Z,86.20
2018-12-24T01:58:06.346Z,85.80
2018-12-24T02:00:39.959Z,85.70
2018-12-24T02:03:13.185Z,85.70
2018-12-24T02:05:46.746Z,85.80
2018-12-24T02:08:19.671Z,85.40
2018-12-24T02:10:53.063Z,85.10
2018-12-24T02:13:25.773Z,85.60
2018-12-24T02:15:59.396Z,84.20
2018-12-24T02:18:32.707Z,84.00
2018-12-24T02:21:05.325Z,84.90
2018-12-24T02:23:38.645Z,83.80
2018-12-24T02:26:11.628Z,85.30
2018-12-24T02:28:44.231Z,84.30
2018-12-24T02:31:17.521Z,85.20
2018-12-24T02:33:50.720Z,86.40
2018-12-24T02:36:23.533Z,86.70
2018-12-24T02:38:56.580Z,87.80
2018-12-24T02:41:29.413Z,87.00
2018-12-24T02:44:02.310Z,86.70
2018-12-24T02:46:35.158Z,86.40
2018-12-24T02:49:07.954Z,83.50
2018-12-24T02:51:40.636Z,81.60
2018-12-24T02:54:13.816Z,83.20
2018-12-24T02:56:47.375Z,84.70
2018-12-24T02:59:20.286Z,87.70
2018-12-24T03:01:53.583Z,89.00
2018-12-24T03:04:27.324Z,89.80
2018-12-24T03:07:00.953Z,88.60
2018-12-24T03:09:34.180Z,87.40
2018-12-24T03:12:06.956Z,87.50
2018-12-24T03:14:40.259Z,87.80
2018-12-24T03:17:13.520Z,87.90
2018-12-24T03:19:47.605Z,87.80
2018-12-24T03:22:20.351Z,87.60
2018-12-24T03:24:53.224Z,87.00
2018-12-24T03:27:26.669Z,85.90
2018-12-24T03:29:59.407Z,85.10
2018-12-24T03:32:32.804Z,84.50
2018-12-24T03:35:05.945Z,84.20
2018-12-24T03:37:39.214Z,83.50
2018-12-24T03:40:12.091Z,83.60
2018-12-24T03:42:45.807Z,83.80
2018-12-24T03:46:24.499Z,84.10
2018-12-24T03:48:56.714Z,83.50
2018-12-24T03:51:28.994Z,83.00
2018-12-24T03:54:01.016Z,82.50
2018-12-24T03:56:33.625Z,82.00
2018-12-24T03:59:06.065Z,80.70
2018-12-24T04:01:38.197Z,80.60
2018-12-24T04:04:10.677Z,80.70
2018-12-24T04:06:42.736Z,80.40
2018-12-24T04:09:15.340Z,80.40
2018-12-24T04:11:47.987Z,81.20
2018-12-24T04:14:20.451Z,81.00
2018-12-24T04:16:53.164Z,81.60
2018-12-24T04:19:25.827Z,82.20
2018-12-24T04:21:57.950Z,82.20
2018-12-24T04:24:30.761Z,82.50
2018-12-24T04:27:03.261Z,81.60
2018-12-24T04:29:35.595Z,81.00
2018-12-24T04:32:08.328Z,80.80
2018-12-24T04:34:40.628Z,80.70
2018-12-24T04:37:13.347Z,80.20
2018-12-24T04:39:45.427Z,81.80
2018-12-24T04:42:18.093Z,83.10
2018-12-24T04:44:50.805Z,82.60
2018-12-24T04:47:23.605Z,81.50
2018-12-24T04:49:55.898Z,80.40
2018-12-24T04:52:27.992Z,81.70
2018-12-24T04:55:00.395Z,81.90
2018-12-24T04:57:33.149Z,84.40
2018-12-24T05:00:06.746Z,85.50
2018-12-24T05:02:39.248Z,86.90
2018-12-24T05:05:12.121Z,87.10
2018-12-24T05:07:44.911Z,86.70
2018-12-24T05:10:17.713Z,86.10
2018-12-24T05:12:50.049Z,87.20
2018-12-24T05:15:22.756Z,85.30
2018-12-24T05:17:55.306Z,84.70
2018-12-24T05:20:28.090Z,84.70
2018-12-24T05:23:00.975Z,85.20
2018-12-24T05:25:33.774Z,85.60
2018-12-24T05:28:06.024Z,86.60
2018-12-24T05:30:38.551Z,86.40
2018-12-24T05:33:11.384Z,86.40
2018-12-24T05:35:43.772Z,85.80
2018-12-24T05:38:16.710Z,85.80
2018-12-24T05:40:49.263Z,85.00
2018-12-24T05:43:21.967Z,84.50
2018-12-24T05:45:55.298Z,84.30
2018-12-24T05:48:28.313Z,84.50
2018-12-24T05:51:01.389Z,84.30
2018-12-24T05:53:34.171Z,84.10
2018-12-24T05:56:07.087Z,83.70
2018-12-24T05:58:40.041Z,83.60
2018-12-24T06:01:13.831Z,83.50
2018-12-24T06:03:46.530Z,83.10
2018-12-24T06:06:18.869Z,81.90
2018-12-24T06:08:51.327Z,81.80
2018-12-24T06:11:23.828Z,84.40
2018-12-24T06:13:58.129Z,85.90
2018-12-24T06:16:30.731Z,83.50
2018-12-24T06:19:03.719Z,82.70
2018-12-24T06:21:36.371Z,81.50
2018-12-24T06:24:08.788Z,80.50
2018-12-24T06:26:41.392Z,81.10
2018-12-24T06:29:13.858Z,81.80
2018-12-24T06:31:46.482Z,83.20
2018-12-24T06:34:19.277Z,83.80
2018-12-24T06:36:51.521Z,84.10
2018-12-24T06:39:24.103Z,85.60
2018-12-24T06:41:56.978Z,86.60
2018-12-24T06:44:29.385Z,89.00
2018-12-24T06:47:02.091Z,86.30
2018-12-24T06:49:34.506Z,83.80
2018-12-24T06:52:07.804Z,82.90
2018-12-24T06:54:39.776Z,84.40
2018-12-24T06:57:12.572Z,85.50
2018-12-24T06:59:44.824Z,85.80
2018-12-24T07:02:17.452Z,87.30
2018-12-24T07:04:50.063Z,87.70
2018-12-24T07:07:22.185Z,86.70
2018-12-24T07:09:54.146Z,86.50
2018-12-24T07:12:26.264Z,87.50
2018-12-24T07:14:58.557Z,89.70
2018-12-24T07:17:30.564Z,89.60
2018-12-24T07:20:03.343Z,88.50
2018-12-24T07:22:36.040Z,87.40
2018-12-24T07:25:08.676Z,87.10
2018-12-24T07:27:41.075Z,87.30
2018-12-24T07:30:13.225Z,87.50
2018-12-24T07:32:45.418Z,88.00
2018-12-24T07:35:17.858Z,87.50
2018-12-24T07:37:50.103Z,87.10
2018-12-24T07:40:22.330Z,86.70
2018-12-24T07:42:54.816Z,86.80
2018-12-24T07:45:27.559Z,86.60
2018-12-24T07:48:00.245Z,86.50
2018-12-24T07:50:32.813Z,86.40
2018-12-24T07:53:05.050Z,86.20
2018-12-24T07:55:37.554Z,85.90
2018-12-24T07:58:09.945Z,85.90
2018-12-24T08:00:42.956Z,85.60
2018-12-24T08:03:15.457Z,85.40
2018-12-24T08:05:48.665Z,85.30
2018-12-24T08:08:21.310Z,85.10
2018-12-24T08:10:54.145Z,85.00
2018-12-24T08:13:26.656Z,85.30
2018-12-24T08:15:59.717Z,84.50
2018-12-24T08:18:32.281Z,83.60
2018-12-24T08:21:04.551Z,83.80
2018-12-24T08:23:37.669Z,82.40
2018-12-24T08:26:10.422Z,82.50
2018-12-24T08:28:43.134Z,83.40
2018-12-24T08:31:15.706Z,84.80
2018-12-24T08:33:48.771Z,85.10
2018-12-24T08:36:21.421Z,85.10
2018-12-24T08:38:53.518Z,85.10
2018-12-24T08:41:26.020Z,85.50
2018-12-24T08:43:58.484Z,86.20
2018-12-24T08:46:31.147Z,87.30
2018-12-24T08:49:04.260Z,87.70
2018-12-24T08:51:36.781Z,88.00
2018-12-24T08:54:09.014Z,88.00
2018-12-24T08:56:41.257Z,88.00
2018-12-24T08:59:14.058Z,87.90
2018-12-24T09:01:49.348Z,87.70
2018-12-24T09:04:21.507Z,87.60
2018-12-24T09:06:53.850Z,87.40
2018-12-24T09:09:26.392Z,87.40
2018-12-24T09:11:59.359Z,86.80
2018-12-24T09:14:31.511Z,86.90
2018-12-24T09:17:04.034Z,86.70
2018-12-24T09:19:36.441Z,86.70
2018-12-24T09:22:08.699Z,86.60
2018-12-24T09:24:41.250Z,86.70
2018-12-24T09:27:13.716Z,86.30
2018-12-24T09:29:45.931Z,86.40
2018-12-24T09:32:19.119Z,86.50
2018-12-24T09:34:52.171Z,86.00
2018-12-24T09:37:24.441Z,86.00
2018-12-24T09:39:56.744Z,86.10
2018-12-24T09:42:29.316Z,86.10
2018-12-24T09:45:02.273Z,86.10
2018-12-24T09:47:34.944Z,85.90
2018-12-24T09:50:07.542Z,86.00
2018-12-24T09:52:40.194Z,86.00
2018-12-24T09:55:13.164Z,86.10
2018-12-24T09:57:45.571Z,86.10
2018-12-24T10:00:19.905Z,86.20
2018-12-24T10:03:11.419Z,86.10
2018-12-24T10:05:44.321Z,85.90
2018-12-24T10:08:19.724Z,86.10
2018-12-24T10:10:52.519Z,85.80
2018-12-24T10:13:25.697Z,85.90
2018-12-24T10:15:58.729Z,86.10
2018-12-24T10:18:31.040Z,85.10
2018-12-24T10:21:04.083Z,85.30
2018-12-24T10:23:36.330Z,85.60
2018-12-24T10:26:08.849Z,86.30
2018-12-24T10:28:41.137Z,86.30
2018-12-24T10:31:13.604Z,86.60
2018-12-24T10:33:46.143Z,86.50
2018-12-24T10:36:18.499Z,85.90
2018-12-24T10:47:31.496Z,85.80
2018-12-24T10:50:03.643Z,85.60
2018-12-24T10:52:35.687Z,84.90
2018-12-24T10:55:08.182Z,84.90
2018-12-24T10:57:40.695Z,85.20
2018-12-24T11:00:13.890Z,84.50
2018-12-24T11:02:45.997Z,83.70
2018-12-24T11:05:18.791Z,83.80
2018-12-24T11:07:51.101Z,83.40
2018-12-24T11:10:23.645Z,83.90
2018-12-24T11:12:56.036Z,83.90
2018-12-24T11:15:28.722Z,84.00
2018-12-24T11:18:01.347Z,84.00
2018-12-24T11:20:33.447Z,84.40
2018-12-24T11:23:06.146Z,84.90
2018-12-24T11:25:38.618Z,85.30
2018-12-24T11:28:11.424Z,84.90
2018-12-24T11:30:44.465Z,85.30
2018-12-24T11:33:17.053Z,85.50
2018-12-24T11:35:49.102Z,84.50
2018-12-24T11:38:21.263Z,83.80
2018-12-24T11:40:53.869Z,83.90
2018-12-24T11:43:26.354Z,83.90
2018-12-24T11:45:58.795Z,84.10
2018-12-24T11:48:30.999Z,84.30
2018-12-24T11:51:03.865Z,83.90
2018-12-24T11:53:36.168Z,84.00
2018-12-24T11:56:09.136Z,84.00
2018-12-24T11:58:41.758Z,83.70
2018-12-24T12:01:13.945Z,83.70
2018-12-24T12:03:46.884Z,83.60
2018-12-24T12:06:20.371Z,84.90
2018-12-24T12:08:53.097Z,84.40
2018-12-24T12:11:25.706Z,84.80
2018-12-24T12:13:58.708Z,84.50
2018-12-24T12:16:31.855Z,84.50
2018-12-24T12:19:04.569Z,84.70
2018-12-24T12:21:36.940Z,85.10
2018-12-24T12:24:09.749Z,85.10
2018-12-24T12:26:41.954Z,83.90
2018-12-24T12:29:14.892Z,83.90
2018-12-24T12:31:48.134Z,84.40
2018-12-24T12:34:20.670Z,84.40
2018-12-24T12:36:53.043Z,83.70
2018-12-24T12:39:25.507Z,83.70
2018-12-24T12:41:58.183Z,83.20
2018-12-24T12:44:30.508Z,83.10
2018-12-24T12:47:03.136Z,83.40
2018-12-24T12:49:35.559Z,83.40
2018-12-24T12:52:08.755Z,83.70
2018-12-24T12:54:41.406Z,82.90
2018-12-24T12:57:13.706Z,82.60
2018-12-24T12:59:46.175Z,83.40
2018-12-24T13:02:19.135Z,83.30
2018-12-24T13:04:52.147Z,83.50
2018-12-24T13:07:24.372Z,83.40
2018-12-24T13:09:56.688Z,83.60
2018-12-24T13:12:28.849Z,83.00
2018-12-24T13:15:01.487Z,82.70
2018-12-24T13:17:34.481Z,83.20
2018-12-24T13:20:07.235Z,83.40
2018-12-24T13:22:39.259Z,83.50
2018-12-24T13:25:11.484Z,83.40
2018-12-24T13:27:44.463Z,83.10
2018-12-24T13:30:17.056Z,83.60
2018-12-24T13:32:49.619Z,83.00
2018-12-24T13:35:22.520Z,82.50
2018-12-24T13:37:54.891Z,81.40
2018-12-24T13:40:28.509Z,81.40
2018-12-24T13:43:01.040Z,81.30
2018-12-24T13:45:34.049Z,80.90
2018-12-24T13:48:06.465Z,81.40
2018-12-24T13:50:38.996Z,80.80
2018-12-24T13:53:12.142Z,80.80
2018-12-24T13:55:44.495Z,80.40
2018-12-24T13:58:16.903Z,80.60
2018-12-24T14:00:49.163Z,80.40
2018-12-24T14:03:21.672Z,79.50
2018-12-24T14:05:54.319Z,78.50
2018-12-24T14:08:26.595Z,78.30
2018-12-24T14:10:59.229Z,79.20
2018-12-24T14:13:31.530Z,79.10
2018-12-24T14:16:04.175Z,78.70
2018-12-24T14:18:36.571Z,77.00
2018-12-24T14:21:09.411Z,77.60
2018-12-24T14:23:42.176Z,76.50
2018-12-24T14:26:14.373Z,77.50
2018-12-24T14:28:46.925Z,78.00
2018-12-24T14:31:19.359Z,76.40
2018-12-24T14:33:51.736Z,74.80
2018-12-24T14:36:24.195Z,75.30
2018-12-24T14:38:56.739Z,75.10
2018-12-24T14:41:29.423Z,75.60
2018-12-24T14:44:01.559Z,74.40
2018-12-24T14:46:34.182Z,74.90
2018-12-24T14:49:06.794Z,74.10
2018-12-24T14:51:39.545Z,74.00
2018-12-24T14:54:11.644Z,73.40
2018-12-24T14:56:44.156Z,74.10
2018-12-24T14:59:16.813Z,73.30
2018-12-24T15:01:49.921Z,73.10
2018-12-24T15:04:22.582Z,73.00
2018-12-24T15:06:55.138Z,72.40
2018-12-24T15:09:27.925Z,73.50
2018-12-24T15:12:00.493Z,72.90
2018-12-24T15:14:33.211Z,72.30
2018-12-24T15:17:05.895Z,73.00
2018-12-24T15:19:38.407Z,72.80
2018-12-24T15:22:10.894Z,73.70
2018-12-24T15:24:43.553Z,74.60
2018-12-24T15:27:16.470Z,73.80
2018-12-24T15:29:48.604Z,73.50
2018-12-24T15:32:21.735Z,73.50
2018-12-24T15:34:53.935Z,73.80
2018-12-24T15:37:27.086Z,74.60
2018-12-24T15:39:59.397Z,73.70
2018-12-24T15:42:32.383Z,73.20
2018-12-24T15:45:04.789Z,72.20
2018-12-24T15:47:37.764Z,72.00
2018-12-24T15:50:10.432Z,72.00
2018-12-24T15:52:44.793Z,71.40
2018-12-24T15:55:17.523Z,71.50
2018-12-24T15:57:50.726Z,70.60
2018-12-24T16:00:24.012Z,71.30
2018-12-24T16:02:56.422Z,70.80
2018-12-24T16:05:29.216Z,70.40
2018-12-24T16:08:01.826Z,68.80
2018-12-24T16:10:34.744Z,69.10
2018-12-24T16:13:07.211Z,68.20
2018-12-24T16:15:40.105Z,69.10
2018-12-24T16:18:12.659Z,68.10
2018-12-24T16:20:45.351Z,69.00
2018-12-24T16:23:17.433Z,69.90
2018-12-24T16:25:50.108Z,70.50
2018-12-24T16:28:22.988Z,69.10
2018-12-24T16:30:55.363Z,69.40
2018-12-24T16:33:28.252Z,68.10
2018-12-24T16:36:00.805Z,67.50
2018-12-24T16:38:33.607Z,67.80
2018-12-24T16:41:06.012Z,66.80
2018-12-24T16:43:38.968Z,67.70
2018-12-24T16:46:11.539Z,66.60
2018-12-24T16:48:44.233Z,67.30
2018-12-24T16:51:16.596Z,67.10
2018-12-24T16:53:49.083Z,67.30
2018-12-24T16:56:21.445Z,68.20
2018-12-24T16:58:53.888Z,68.20
2018-12-24T17:01:26.934Z,67.40
2018-12-24T17:03:59.931Z,68.50
2018-12-24T17:06:32.873Z,67.40
2018-12-24T17:09:06.394Z,66.80
2018-12-24T17:11:39.129Z,66.70
2018-12-24T17:14:11.753Z,64.60
2018-12-24T17:16:44.199Z,63.50
2018-12-24T17:19:16.939Z,62.80
2018-12-24T17:21:49.597Z,62.90
2018-12-24T17:24:22.434Z,63.10
2018-12-24T17:26:55.144Z,63.50
2018-12-24T17:29:28.285Z,62.60
2018-12-24T17:32:00.787Z,61.60
2018-12-24T17:34:33.758Z,61.70
2018-12-24T17:37:06.246Z,61.30
2018-12-24T17:39:39.173Z,62.30
2018-12-24T17:42:11.730Z,61.40
2018-12-24T17:44:45.322Z,61.60
2018-12-24T17:47:18.184Z,62.20
2018-12-24T17:49:50.782Z,62.90
2018-12-24T17:52:23.472Z,62.30
2018-12-24T17:54:56.249Z,62.90
2018-12-24T17:57:28.636Z,63.50
2018-12-24T18:00:01.421Z,63.50
2018-12-24T18:02:34.263Z,63.30
2018-12-24T18:05:07.179Z,63.00
2018-12-24T18:07:39.465Z,64.60
2018-12-24T18:10:12.413Z,64.20
2018-12-24T18:12:45.418Z,64.30
2018-12-24T18:15:18.080Z,64.70
2018-12-24T18:17:50.250Z,65.00
2018-12-24T18:20:22.663Z,65.00
2018-12-24T18:22:55.522Z,65.30
2018-12-24T18:25:28.380Z,66.30
2018-12-24T18:28:00.639Z,66.20
2018-12-24T18:30:33.489Z,66.00
2018-12-24T18:33:06.154Z,66.50
2018-12-24T18:35:38.860Z,66.50
2018-12-24T18:38:11.380Z,66.50
2018-12-24T18:40:43.935Z,67.10
2018-12-24T18:43:16.449Z,67.00
2018-12-24T18:45:49.409Z,68.20
2018-12-24T18:48:21.487Z,67.80
2018-12-24T18:50:54.108Z,68.00
2018-12-24T18:53:26.603Z,67.60
2018-12-24T18:55:58.821Z,66.80
2018-12-24T18:58:31.117Z,66.40
2018-12-24T19:01:04.193Z,66.70
2018-12-24T19:03:36.930Z,67.40
2018-12-24T19:06:09.785Z,67.30
2018-12-24T19:08:42.270Z,67.50
2018-12-24T19:11:14.836Z,67.80
2018-12-24T19:13:47.452Z,67.90
2018-12-24T19:16:19.455Z,67.80
2018-12-24T19:18:51.568Z,68.50
2018-12-24T19:21:23.721Z,69.00
2018-12-24T19:23:55.891Z,69.00
2018-12-24T19:26:28.197Z,68.90
2018-12-24T19:29:00.865Z,70.00
2018-12-24T19:31:33.571Z,70.30
2018-12-24T19:34:06.296Z,70.40
2018-12-24T19:36:39.039Z,70.90
2018-12-24T19:39:12.070Z,71.70
2018-12-24T19:41:44.982Z,70.50
2018-12-24T19:44:17.986Z,70.60
2018-12-24T19:46:51.019Z,70.80
2018-12-24T19:49:24.193Z,71.50
2018-12-24T19:51:56.595Z,71.40
2018-12-24T19:54:28.772Z,72.50
2018-12-24T19:57:01.495Z,72.20
2018-12-24T19:59:34.186Z,71.80
2018-12-24T20:02:06.625Z,71.50
2018-12-24T20:04:39.176Z,72.20
2018-12-24T20:07:12.156Z,72.80
2018-12-24T20:09:44.378Z,73.40
2018-12-24T20:12:16.975Z,73.60
2018-12-24T20:14:49.381Z,73.70
2018-12-24T20:17:22.258Z,73.70
2018-12-24T20:19:54.703Z,72.40
2018-12-24T20:22:27.449Z,72.20
2018-12-24T20:25:00.369Z,70.60
2018-12-24T20:27:32.988Z,70.90
2018-12-24T20:30:06.305Z,70.70
2018-12-24T20:32:38.585Z,70.60
2018-12-24T20:35:11.532Z,70.90
2018-12-24T20:37:44.465Z,71.00
2018-12-24T20:40:16.848Z,71.10
2018-12-24T20:42:48.944Z,71.60
2018-12-24T20:45:20.935Z,72.30
2018-12-24T20:47:53.267Z,72.70
2018-12-24T20:50:25.719Z,72.20
2018-12-24T20:52:58.920Z,72.70
2018-12-24T20:55:31.085Z,72.70
2018-12-24T20:58:03.901Z,72.40
2018-12-24T21:00:36.377Z,72.30
2018-12-24T21:03:08.859Z,72.90
2018-12-24T21:05:42.134Z,73.50
2018-12-24T21:08:14.408Z,74.10
2018-12-24T21:10:46.959Z,74.30
2018-12-24T21:13:19.669Z,73.90
2018-12-24T21:15:51.742Z,73.90
2018-12-24T21:18:24.374Z,74.20
2018-12-24T21:20:56.834Z,75.00
2018-12-24T21:23:29.102Z,75.60
2018-12-24T21:26:01.745Z,76.60
2018-12-24T21:28:34.778Z,77.70
2018-12-24T21:31:06.969Z,78.50
2018-12-24T21:33:39.645Z,79.30
2018-12-24T21:36:11.691Z,80.10
2018-12-24T21:38:44.410Z,80.90
2018-12-24T21:41:16.909Z,81.70
2018-12-24T21:43:49.487Z,81.90
2018-12-24T21:46:22.094Z,82.40
2018-12-24T21:48:55.124Z,82.90
2018-12-24T21:51:28.085Z,84.20
2018-12-24T21:54:01.051Z,84.60
2018-12-24T21:56:34.012Z,84.60
2018-12-24T21:59:06.689Z,85.30
2018-12-24T22:01:39.162Z,85.60
2018-12-24T22:04:11.839Z,86.00
2018-12-24T22:06:44.333Z,86.30
2018-12-24T22:09:16.805Z,86.10
2018-12-24T22:11:49.881Z,85.50
2018-12-24T22:14:22.464Z,85.10
2018-12-24T22:16:55.158Z,84.70
2018-12-24T22:19:28.013Z,85.00
2018-12-24T22:22:00.532Z,85.00
2018-12-24T22:24:33.088Z,85.00
2018-12-24T22:27:05.884Z,84.50
2018-12-24T22:29:38.764Z,84.80
2018-12-24T22:32:11.652Z,85.10
2018-12-24T22:34:44.477Z,85.50
2018-12-24T22:37:17.122Z,85.70
2018-12-24T22:39:50.045Z,86.40
2018-12-24T22:42:22.691Z,85.20
2018-12-24T22:44:55.015Z,84.60
2018-12-24T22:47:29.284Z,86.50
2018-12-24T22:50:02.642Z,86.10
2018-12-24T22:52:35.565Z,87.60
2018-12-24T22:55:08.918Z,87.70
2018-12-24T22:57:41.594Z,88.00
2018-12-24T23:00:19.758Z,87.00
2018-12-24T23:02:52.423Z,86.60
2018-12-24T23:05:25.225Z,86.70
2018-12-24T23:07:58.304Z,88.50
2018-12-24T23:10:31.497Z,88.70
2018-12-24T23:13:04.287Z,88.50
2018-12-24T23:15:36.991Z,89.30
2018-12-24T23:18:09.490Z,88.80
2018-12-24T23:20:42.188Z,88.50
2018-12-24T23:23:14.600Z,89.40
2018-12-24T23:25:47.690Z,89.30
2018-12-24T23:28:20.647Z,89.00
2018-12-24T23:30:53.581Z,87.90
2018-12-24T23:33:26.110Z,89.10
2018-12-24T23:35:59.250Z,89.70
2018-12-24T23:38:31.859Z,89.50
2018-12-24T23:41:04.816Z,89.90
2018-12-24T23:43:37.229Z,89.60
2018-12-24T23:46:09.441Z,89.30
2018-12-24T23:48:41.564Z,88.80
2018-12-24T23:51:14.427Z,88.60
2018-12-24T23:53:47.304Z,88.20
2018-12-24T23:56:19.886Z,87.80
2018-12-24T23:58:52.596Z,87.40
